Time;durP1;ratioP1;P1;durP2;ratioP2;P2;SDS_P1;SDS_P2;PMS_P1;PMS_P2;Temp;Humidity;BMP_temperature;BMP_pressure;BME280_temperature;BME280_humidity;BME280_pressure;Samples;Min_cycle;Max_cycle;Signal;HPM_P1;HPM_P2
2021/06/04 00:00:33;;;;;;;1.77;1.40;;;17.60;53.90;;;;;;4966758;28;20031;-84
2021/06/04 00:03:07;;;;;;;3.28;1.60;;;17.60;54.20;;;;;;4950773;28;20487;-82
2021/06/04 00:05:44;;;;;;;2.08;1.40;;;17.50;54.00;;;;;;4951563;28;20045;-83
2021/06/04 00:08:11;;;;;;;2.50;1.60;;;17.50;54.10;;;;;;4950562;28;20442;-83
2021/06/04 00:11:04;;;;;;;2.58;1.42;;;17.50;54.10;;;;;;4953583;28;20105;-82
2021/06/04 00:13:42;;;;;;;2.45;1.60;;;17.40;54.10;;;;;;4966862;28;20125;-83
2021/06/04 00:16:26;;;;;;;2.53;1.50;;;17.40;54.20;;;;;;4966606;28;20049;-83
2021/06/04 00:18:54;;;;;;;4.22;1.85;;;17.30;54.10;;;;;;4966708;28;20077;-83
2021/06/04 00:21:26;;;;;;;3.50;1.83;;;17.30;54.10;;;;;;4966949;28;20030;-83
2021/06/04 00:23:57;;;;;;;2.10;1.33;;;17.30;54.20;;;;;;4951214;28;20457;-83
2021/06/04 00:26:23;;;;;;;2.10;1.60;;;17.20;54.70;;;;;;4951525;28;20261;-83
2021/06/04 00:28:49;;;;;;;1.38;1.20;;;17.20;54.20;;;;;;4967034;28;20300;-83
2021/06/04 00:31:15;;;;;;;1.33;1.10;;;17.20;54.30;;;;;;4966434;28;20521;-83
2021/06/04 00:33:43;;;;;;;2.63;1.42;;;17.10;54.20;;;;;;4966846;28;20035;-84
2021/06/04 00:36:10;;;;;;;2.22;1.30;;;17.10;54.30;;;;;;4951174;28;20101;-82
2021/06/04 00:38:37;;;;;;;5.93;1.83;;;17.10;54.40;;;;;;4968504;28;20098;-83
2021/06/04 00:41:07;;;;;;;1.63;1.35;;;17.00;54.20;;;;;;4966164;28;20530;-83
2021/06/04 00:43:34;;;;;;;3.88;1.48;;;17.00;54.40;;;;;;4966560;28;20039;-83
2021/06/04 00:46:02;;;;;;;3.30;1.50;;;17.00;54.40;;;;;;4950347;28;20066;-83
2021/06/04 00:48:28;;;;;;;4.63;1.73;;;16.90;54.30;;;;;;4966778;28;20039;-85
2021/06/04 00:51:04;;;;;;;2.88;1.38;;;16.90;54.40;;;;;;4951559;28;20043;-84
2021/06/04 00:53:32;;;;;;;3.85;1.83;;;16.80;54.30;;;;;;4966471;28;20569;-83
2021/06/04 00:55:59;;;;;;;3.63;1.50;;;16.80;54.30;;;;;;4950337;28;20115;-83
2021/06/04 00:58:43;;;;;;;4.07;1.88;;;16.80;54.40;;;;;;4950448;28;20553;-83
2021/06/04 01:01:11;;;;;;;2.45;1.40;;;16.80;54.50;;;;;;4966923;28;20043;-84
2021/06/04 01:03:45;;;;;;;4.97;1.65;;;16.70;54.30;;;;;;4967749;28;20031;-84
2021/06/04 01:06:22;;;;;;;2.78;1.67;;;16.70;54.50;;;;;;4966404;28;20034;-83
2021/06/04 01:09:14;;;;;;;3.65;1.70;;;16.70;54.50;;;;;;4966877;28;20525;-83
2021/06/04 01:12:00;;;;;;;2.40;1.70;;;16.70;54.70;;;;;;4950596;28;20023;-83
2021/06/04 01:14:42;;;;;;;2.00;1.40;;;16.60;54.60;;;;;;4966402;28;20045;-82
2021/06/04 01:17:11;;;;;;;2.55;1.50;;;16.60;54.60;;;;;;4965895;28;20022;-83
2021/06/04 01:19:57;;;;;;;3.03;1.73;;;16.60;54.60;;;;;;4965825;28;20035;-83
2021/06/04 01:22:48;;;;;;;2.10;1.50;;;16.50;54.50;;;;;;4966041;28;20103;-83
2021/06/04 01:25:45;;;;;;;2.20;1.45;;;16.60;54.80;;;;;;4947143;28;20033;-83
2021/06/04 01:28:20;;;;;;;2.17;1.52;;;16.50;54.70;;;;;;4932775;28;20039;-83
2021/06/04 01:30:59;;;;;;;2.92;1.58;;;16.40;54.50;;;;;;4965890;28;20162;-83
2021/06/04 01:33:36;;;;;;;2.50;1.27;;;16.40;54.60;;;;;;4952429;28;20490;-83
2021/06/04 01:36:04;;;;;;;2.40;1.85;;;16.40;54.60;;;;;;4951878;28;20438;-83
2021/06/04 01:38:37;;;;;;;2.42;1.40;;;16.40;54.60;;;;;;4967791;28;20031;-83
2021/06/04 01:41:09;;;;;;;3.15;1.58;;;16.30;54.60;;;;;;4968880;28;20031;-83
2021/06/04 01:43:48;;;;;;;2.58;1.77;;;16.30;54.60;;;;;;4971331;28;20327;-83
2021/06/04 01:46:35;;;;;;;2.50;1.58;;;16.30;54.80;;;;;;4958439;28;20035;-83
2021/06/04 01:49:12;;;;;;;4.32;1.67;;;16.20;54.70;;;;;;4955600;29;20391;-83
2021/06/04 01:51:46;;;;;;;3.30;1.55;;;16.20;54.70;;;;;;4955293;29;20035;-84
2021/06/04 01:54:23;;;;;;;2.75;1.70;;;16.20;54.80;;;;;;4956220;29;20078;-83
2021/06/04 01:56:59;;;;;;;2.78;1.70;;;16.10;54.60;;;;;;4955317;29;20402;-83
2021/06/04 01:59:25;;;;;;;1.63;1.40;;;16.10;54.80;;;;;;4954733;29;20031;-83
2021/06/04 02:02:00;;;;;;;4.57;1.50;;;16.10;54.70;;;;;;4956065;28;20039;-84
2021/06/04 02:04:34;;;;;;;2.47;2.00;;;16.10;54.80;;;;;;4955207;29;20085;-83
2021/06/04 02:07:02;;;;;;;3.15;1.75;;;16.10;54.90;;;;;;4954843;29;20031;-83
2021/06/04 02:09:29;;;;;;;4.00;2.03;;;16.00;54.70;;;;;;4954971;29;20122;-84
2021/06/04 02:12:05;;;;;;;2.17;1.58;;;16.00;54.80;;;;;;4955128;28;20491;-85
2021/06/04 02:14:45;;;;;;;4.13;1.63;;;16.00;54.80;;;;;;4955122;29;20547;-84
2021/06/04 02:17:38;;;;;;;3.15;1.77;;;15.90;54.70;;;;;;4954955;29;20035;-83
2021/06/04 02:20:28;;;;;;;4.40;1.88;;;15.90;54.80;;;;;;4955379;28;20055;-83
2021/06/04 02:23:41;;;;;;;1.50;1.35;;;15.90;54.90;;;;;;4954956;29;20085;-84
2021/06/04 02:26:10;;;;;;;1.90;1.55;;;15.80;54.70;;;;;;4938254;29;20522;-83
2021/06/04 02:28:47;;;;;;;3.97;1.73;;;15.80;54.70;;;;;;4955376;28;20546;-83
2021/06/04 02:31:37;;;;;;;4.25;1.95;;;15.80;54.90;;;;;;4954728;29;20049;-84
2021/06/04 02:34:11;;;;;;;2.67;1.60;;;15.70;54.70;;;;;;4954558;29;20487;-83
2021/06/04 02:37:20;;;;;;;3.25;2.10;;;15.70;54.70;;;;;;4939034;29;20041;-84
2021/06/04 02:41:17;;;;;;;2.53;1.58;;;15.60;54.70;;;;;;4956397;28;20126;-84
2021/06/04 02:43:57;;;;;;;1.98;1.60;;;15.60;54.70;;;;;;4954680;28;20058;-84
2021/06/04 02:46:32;;;;;;;4.07;1.70;;;15.50;54.60;;;;;;4954913;29;20027;-84
2021/06/04 02:48:58;;;;;;;1.75;1.45;;;15.50;54.70;;;;;;4938895;29;20035;-84
2021/06/04 02:51:42;;;;;;;2.45;1.63;;;15.40;54.50;;;;;;4954167;28;20046;-83
2021/06/04 02:54:14;;;;;;;2.22;1.50;;;15.40;54.80;;;;;;4953343;29;20078;-83
2021/06/04 02:56:47;;;;;;;2.38;1.40;;;15.40;54.80;;;;;;4954883;28;20036;-84
2021/06/04 02:59:27;;;;;;;1.77;1.42;;;15.30;54.70;;;;;;4954266;29;20177;-83
2021/06/04 03:02:03;;;;;;;3.25;1.42;;;15.30;54.80;;;;;;4938324;29;20105;-83
2021/06/04 03:04:37;;;;;;;3.22;1.75;;;15.30;54.80;;;;;;4938580;29;20506;-83
2021/06/04 03:07:08;;;;;;;2.33;1.65;;;15.20;54.60;;;;;;4938395;29;20035;-83
2021/06/04 03:09:38;;;;;;;1.73;1.48;;;15.20;54.70;;;;;;4953898;28;20039;-83
2021/06/04 03:12:20;;;;;;;1.85;1.60;;;15.10;55.20;;;;;;4954369;28;20395;-84
2021/06/04 03:14:49;;;;;;;2.45;1.73;;;15.10;54.70;;;;;;4953335;29;20039;-83
2021/06/04 03:17:19;;;;;;;3.63;2.05;;;15.10;54.70;;;;;;4953857;29;20471;-84
2021/06/04 03:19:45;;;;;;;2.95;1.88;;;15.00;54.60;;;;;;4954302;28;20046;-84
2021/06/04 03:22:18;;;;;;;3.22;1.80;;;15.00;54.70;;;;;;4953868;29;20035;-84
2021/06/04 03:24:45;;;;;;;3.38;1.90;;;15.00;54.80;;;;;;4953346;28;20039;-83
2021/06/04 03:27:16;;;;;;;1.85;1.65;;;14.90;54.60;;;;;;4953698;29;20472;-85
2021/06/04 03:29:46;;;;;;;2.08;1.77;;;14.90;54.70;;;;;;4955015;28;20554;-84
2021/06/04 03:32:15;;;;;;;4.60;2.03;;;14.90;54.70;;;;;;4953158;29;20035;-84
2021/06/04 03:34:44;;;;;;;3.38;2.05;;;14.80;54.70;;;;;;4953776;28;20271;-85
2021/06/04 03:37:13;;;;;;;3.58;1.75;;;14.80;54.70;;;;;;4953472;29;20031;-85
2021/06/04 03:39:42;;;;;;;1.85;1.65;;;14.80;54.70;;;;;;4954801;28;20078;-84
2021/06/04 03:42:23;;;;;;;2.45;1.92;;;14.80;54.80;;;;;;4954090;28;20483;-85
2021/06/04 03:44:51;;;;;;;3.67;2.08;;;14.70;54.70;;;;;;4953566;28;20475;-85
2021/06/04 03:47:18;;;;;;;2.22;1.70;;;14.70;54.70;;;;;;4953783;28;20031;-84
2021/06/04 03:49:45;;;;;;;2.38;1.73;;;14.60;54.60;;;;;;4937528;29;20126;-85
2021/06/04 03:52:15;;;;;;;2.50;1.77;;;14.60;54.70;;;;;;4953529;29;20028;-83
2021/06/04 03:54:46;;;;;;;3.00;2.00;;;14.60;54.80;;;;;;4953106;29;20522;-83
2021/06/04 03:57:16;;;;;;;2.45;1.98;;;14.50;54.60;;;;;;4954152;28;20058;-85
2021/06/04 03:59:44;;;;;;;2.00;1.50;;;14.50;54.70;;;;;;4954309;28;20483;-87
2021/06/04 04:02:13;;;;;;;2.85;1.95;;;14.40;54.50;;;;;;4953333;29;20035;-87
2021/06/04 04:04:40;;;;;;;3.75;2.42;;;14.40;54.60;;;;;;4953317;28;20139;-86
2021/06/04 04:07:08;;;;;;;4.57;2.00;;;14.40;54.70;;;;;;4953380;29;20352;-85
2021/06/04 04:09:34;;;;;;;2.83;1.70;;;14.30;54.60;;;;;;4953274;28;20046;-83
2021/06/04 04:12:00;;;;;;;3.00;1.92;;;14.30;54.60;;;;;;4953040;28;20031;-84
2021/06/04 04:14:27;;;;;;;3.13;2.05;;;14.30;54.70;;;;;;4953104;29;20117;-84
2021/06/04 04:16:54;;;;;;;3.00;2.03;;;14.20;54.50;;;;;;4953974;29;20035;-83
2021/06/04 04:19:23;;;;;;;4.55;1.60;;;14.30;54.80;;;;;;4952894;29;20035;-85
2021/06/04 04:22:40;;;;;;;2.90;1.83;;;14.20;54.60;;;;;;4952463;29;20121;-85
2021/06/04 04:25:09;;;;;;;3.20;2.05;;;14.20;54.80;;;;;;4952504;29;20031;-84
2021/06/04 04:31:32;;;;;;;2.67;1.95;;;14.20;54.80;;;;;;4952810;28;20515;-84
2021/06/04 04:34:34;;;;;;;1.73;1.63;;;14.10;54.60;;;;;;4941968;29;20049;-83
2021/06/04 04:37:03;;;;;;;2.13;1.55;;;14.10;54.60;;;;;;4952334;28;20035;-84
2021/06/04 04:40:19;;;;;;;3.05;2.03;;;14.00;54.50;;;;;;4936449;29;20038;-85
2021/06/04 04:42:48;;;;;;;2.03;1.67;;;14.00;54.60;;;;;;4952454;29;20042;-85
2021/06/04 04:45:16;;;;;;;2.80;1.63;;;14.00;54.50;;;;;;4920530;29;20457;-84
2021/06/04 04:47:43;;;;;;;3.05;1.90;;;13.90;54.40;;;;;;4950550;28;20031;-84
2021/06/04 04:50:11;;;;;;;2.15;1.95;;;13.90;54.50;;;;;;4932936;29;20472;-84
2021/06/04 04:52:37;;;;;;;2.47;1.80;;;13.90;54.50;;;;;;4948944;29;20035;-84
2021/06/04 04:55:06;;;;;;;2.08;1.80;;;13.90;54.60;;;;;;4948313;29;20043;-84
2021/06/04 04:57:32;;;;;;;2.55;1.92;;;13.80;54.50;;;;;;4950682;28;20027;-84
2021/06/04 04:59:58;;;;;;;3.03;2.00;;;13.80;54.50;;;;;;4952286;28;20038;-85
2021/06/04 05:02:25;;;;;;;2.83;1.90;;;13.80;54.60;;;;;;4966697;28;20386;-85
2021/06/04 05:04:52;;;;;;;1.70;1.60;;;13.80;54.60;;;;;;4966849;28;20031;-85
2021/06/04 05:07:18;;;;;;;2.40;1.85;;;13.80;54.70;;;;;;4966855;28;20130;-84
2021/06/04 05:09:44;;;;;;;2.83;2.00;;;13.80;54.70;;;;;;4947173;29;20039;-84
2021/06/04 05:12:11;;;;;;;4.82;2.45;;;13.80;54.70;;;;;;4932282;28;20078;-88
2021/06/04 05:14:37;;;;;;;2.05;1.60;;;13.80;54.70;;;;;;4967209;28;20035;-86
2021/06/04 05:17:04;;;;;;;2.70;2.05;;;13.80;54.70;;;;;;4953990;28;20038;-85
2021/06/04 05:19:31;;;;;;;2.30;1.75;;;13.80;54.70;;;;;;4970365;28;20107;-85
2021/06/04 05:21:58;;;;;;;4.65;2.17;;;13.80;54.70;;;;;;4954883;28;20151;-85
2021/06/04 05:24:25;;;;;;;2.20;2.00;;;13.80;54.70;;;;;;4954092;28;20244;-85
2021/06/04 05:26:51;;;;;;;2.47;1.95;;;13.90;54.90;;;;;;4970314;28;20031;-86
2021/06/04 05:29:17;;;;;;;2.08;1.60;;;13.90;54.90;;;;;;4970360;28;20387;-86
2021/06/04 05:31:45;;;;;;;2.63;1.63;;;13.90;54.90;;;;;;4972484;28;20549;-86
2021/06/04 05:34:11;;;;;;;1.73;1.58;;;13.90;54.80;;;;;;4954626;28;20086;-89
2021/06/04 05:36:39;;;;;;;2.53;1.83;;;13.90;54.80;;;;;;4954425;28;20096;-82
2021/06/04 05:39:21;;;;;;;1.90;1.67;;;14.00;55.00;;;;;;4955046;28;20438;-85
2021/06/04 05:41:52;;;;;;;5.25;2.00;;;14.00;55.00;;;;;;4971363;28;20113;-85
2021/06/04 05:44:21;;;;;;;2.20;1.75;;;14.00;54.90;;;;;;4969867;28;20504;-82
2021/06/04 05:46:51;;;;;;;3.65;1.67;;;14.00;54.90;;;;;;4954428;28;20035;-87
2021/06/04 05:49:18;;;;;;;2.60;1.80;;;14.00;54.90;;;;;;4954358;28;20097;-84
2021/06/04 05:51:45;;;;;;;1.83;1.48;;;14.00;54.90;;;;;;4969281;28;20533;-88
2021/06/04 06:04:16;;;;;;;4.93;1.95;;;14.20;54.90;;;;;;4966617;28;20542;-89
2021/06/04 06:20:56;;;;;;;2.85;2.08;;;14.50;54.90;;;;;;4968351;28;20047;-84
2021/06/04 06:24:11;;;;;;;3.20;2.10;;;14.60;54.90;;;;;;4968271;28;20035;-84
2021/06/04 06:26:37;;;;;;;3.53;2.03;;;14.70;54.90;;;;;;4932025;28;20039;-83
2021/06/04 06:29:06;;;;;;;2.72;1.60;;;14.70;54.90;;;;;;4961289;28;20038;-83
2021/06/04 06:31:35;;;;;;;2.08;1.83;;;14.80;55.10;;;;;;4969092;28;20077;-83
2021/06/04 06:34:03;;;;;;;2.50;1.70;;;14.80;55.10;;;;;;4970866;28;20100;-83
2021/06/04 06:36:32;;;;;;;2.38;1.80;;;14.90;55.20;;;;;;4969169;28;20030;-84
2021/06/04 06:39:02;;;;;;;2.78;1.75;;;14.90;55.20;;;;;;4953052;28;20046;-83
2021/06/04 06:42:11;;;;;;;1.83;1.50;;;15.00;55.40;;;;;;4969434;28;20038;-83
2021/06/04 06:45:09;;;;;;;1.98;1.80;;;15.10;55.70;;;;;;4954070;28;20039;-83
2021/06/04 06:47:43;;;;;;;6.15;2.17;;;15.20;55.60;;;;;;4953955;28;20046;-87
2021/06/04 06:50:11;;;;;;;2.88;2.13;;;15.20;55.40;;;;;;4969063;28;20027;-83
2021/06/04 06:52:37;;;;;;;2.20;1.58;;;15.30;55.50;;;;;;4969598;28;20038;-82
2021/06/04 06:55:06;;;;;;;3.60;1.95;;;15.40;55.80;;;;;;4969670;28;20105;-83
2021/06/04 06:57:32;;;;;;;2.47;1.83;;;15.40;55.60;;;;;;4969125;28;20058;-82
2021/06/04 06:59:58;;;;;;;5.88;1.70;;;15.50;55.70;;;;;;4953512;28;20042;-89
2021/06/04 07:02:24;;;;;;;2.35;1.80;;;15.60;55.70;;;;;;4970862;28;20054;-89
2021/06/04 07:04:51;;;;;;;2.10;1.67;;;15.60;55.60;;;;;;4968934;28;20450;-84
2021/06/04 07:07:18;;;;;;;2.35;1.73;;;15.70;55.70;;;;;;4953076;28;20027;-84
2021/06/04 07:09:46;;;;;;;3.63;1.92;;;15.70;55.70;;;;;;4968592;28;20427;-84
2021/06/04 07:12:12;;;;;;;2.63;2.00;;;15.80;55.70;;;;;;4950044;28;20096;-84
2021/06/04 07:14:39;;;;;;;2.05;1.85;;;15.80;55.60;;;;;;4966600;28;20035;-82
2021/06/04 07:17:06;;;;;;;2.90;1.90;;;16.00;55.90;;;;;;4952334;28;20396;-82
2021/06/04 07:19:34;;;;;;;2.45;1.67;;;16.00;55.80;;;;;;4968639;28;20054;-83
2021/06/04 07:22:01;;;;;;;2.85;1.98;;;16.10;55.90;;;;;;4969634;28;20031;-83
2021/06/04 07:24:29;;;;;;;3.33;1.80;;;16.20;56.00;;;;;;4969927;28;20030;-88
2021/06/04 07:26:58;;;;;;;4.10;2.15;;;16.30;56.00;;;;;;4968392;28;20073;-83
2021/06/04 07:29:27;;;;;;;1.70;1.60;;;16.40;56.00;;;;;;4969314;28;20337;-83
2021/06/04 07:31:53;;;;;;;2.22;1.65;;;16.50;56.00;;;;;;4969275;28;20066;-83
2021/06/04 07:34:19;;;;;;;2.45;1.80;;;16.60;56.10;;;;;;4966679;28;20046;-83
2021/06/04 07:36:51;;;;;;;2.47;1.77;;;16.80;56.40;;;;;;4969878;28;20047;-83
2021/06/04 07:39:21;;;;;;;2.83;1.67;;;16.90;56.30;;;;;;4968512;28;20545;-83
2021/06/04 07:41:47;;;;;;;3.42;1.63;;;17.00;56.20;;;;;;4967790;28;20042;-83
2021/06/04 07:44:14;;;;;;;2.30;1.65;;;17.10;56.20;;;;;;4968824;28;20058;-85
2021/06/04 07:46:43;;;;;;;2.15;1.85;;;17.10;56.10;;;;;;4952930;28;20034;-83
2021/06/04 07:49:09;;;;;;;2.58;1.73;;;17.30;56.40;;;;;;4951864;28;20023;-86
2021/06/04 07:51:49;;;;;;;2.25;1.40;;;17.40;56.40;;;;;;4952461;28;20114;-86
2021/06/04 07:54:18;;;;;;;2.45;1.90;;;17.70;56.60;;;;;;4952604;28;20634;-89
2021/06/04 07:56:45;;;;;;;1.83;1.60;;;18.00;56.90;;;;;;4969055;28;20053;-86
2021/06/04 07:59:11;;;;;;;4.18;1.60;;;18.40;56.80;;;;;;4968053;28;20027;-83
2021/06/04 08:01:40;;;;;;;2.20;1.85;;;18.60;56.20;;;;;;4967954;28;20414;-85
2021/06/04 08:04:07;;;;;;;1.40;1.30;;;18.70;55.90;;;;;;4967286;28;20497;-86
2021/06/04 08:06:33;;;;;;;1.90;1.52;;;18.80;55.90;;;;;;4966816;28;20035;-86
2021/06/04 08:08:59;;;;;;;2.90;1.70;;;19.20;56.40;;;;;;4968617;28;20027;-87
2021/06/04 08:11:34;;;;;;;2.38;1.70;;;19.80;56.50;;;;;;4951636;28;20278;-87
2021/06/04 08:14:04;;;;;;;3.13;1.55;;;20.50;56.40;;;;;;4968661;28;20038;-85
2021/06/04 08:16:30;;;;;;;2.85;1.65;;;21.30;56.40;;;;;;4968202;28;20110;-83
2021/06/04 08:18:56;;;;;;;1.42;1.33;;;22.10;56.20;;;;;;4969532;28;20122;-89
2021/06/04 08:21:27;;;;;;;1.50;1.40;;;22.90;55.80;;;;;;4970055;28;20536;-89
2021/06/04 08:23:53;;;;;;;1.85;1.30;;;23.70;55.30;;;;;;4969037;28;20494;-86
2021/06/04 08:26:23;;;;;;;1.90;1.40;;;24.50;55.10;;;;;;4968058;28;20035;-89
2021/06/04 08:28:49;;;;;;;2.10;1.70;;;25.10;54.20;;;;;;4969657;28;20027;-85
2021/06/04 08:31:16;;;;;;;2.22;1.45;;;25.90;53.10;;;;;;4953940;28;20030;-88
2021/06/04 08:33:43;;;;;;;4.13;1.70;;;26.40;51.90;;;;;;4953030;28;20098;-87
2021/06/04 08:36:15;;;;;;;2.08;1.40;;;26.90;50.90;;;;;;4969706;28;20085;-89
2021/06/04 08:38:42;;;;;;;2.08;1.42;;;27.20;50.00;;;;;;4936235;28;20549;-87
2021/06/04 08:42:38;;;;;;;3.70;1.38;;;27.60;49.30;;;;;;4950189;28;20577;-87
2021/06/04 09:13:39;;;;;;;2.08;1.33;;;27.60;49.00;;;;;;5122263;27;20747;-72
2021/06/04 09:16:27;;;;;;;4.32;1.65;;;27.30;49.50;;;;;;5102529;28;20116;-72
2021/06/04 09:19:08;;;;;;;2.28;1.25;;;27.20;49.50;;;;;;5085130;28;20032;-72
2021/06/04 09:21:38;;;;;;;4.22;1.70;;;27.10;49.60;;;;;;5084934;28;20126;-72
2021/06/04 09:24:08;;;;;;;2.38;1.23;;;27.00;49.50;;;;;;5101855;28;20148;-71
2021/06/04 09:26:35;;;;;;;2.08;1.15;;;27.10;49.30;;;;;;5101870;28;20031;-72
2021/06/04 09:29:01;;;;;;;1.92;1.30;;;27.30;49.20;;;;;;5103317;28;20110;-72
2021/06/04 09:32:20;;;;;;;2.80;1.42;;;27.30;48.90;;;;;;5103495;28;20375;-72
2021/06/04 09:34:46;;;;;;;1.85;1.10;;;27.40;48.70;;;;;;5100650;28;20032;-73
2021/06/04 09:37:24;;;;;;;2.42;1.00;;;27.50;48.60;;;;;;5100786;28;20509;-71
2021/06/04 09:39:54;;;;;;;1.27;1.15;;;27.40;48.40;;;;;;5101374;28;20027;-71
2021/06/04 09:42:25;;;;;;;1.33;1.15;;;27.40;48.50;;;;;;5103078;28;20038;-72
2021/06/04 09:44:56;;;;;;;1.48;1.30;;;27.30;48.60;;;;;;5101866;28;20176;-70
2021/06/04 09:47:35;;;;;;;2.75;1.17;;;27.30;48.80;;;;;;5088944;28;20024;-71
2021/06/04 09:50:33;;;;;;;1.77;1.15;;;27.30;49.00;;;;;;5083039;28;20028;-71
2021/06/04 09:53:23;;;;;;;3.08;1.50;;;27.30;49.00;;;;;;5087424;28;20047;-72
2021/06/04 09:56:08;;;;;;;2.00;1.60;;;27.40;49.10;;;;;;5102930;28;20036;-71
2021/06/04 09:59:00;;;;;;;1.45;1.10;;;27.50;49.00;;;;;;5102228;28;20055;-71
2021/06/04 10:01:30;;;;;;;1.50;0.98;;;27.70;49.00;;;;;;5102782;28;20419;-71
2021/06/04 10:04:03;;;;;;;1.55;1.00;;;27.70;48.90;;;;;;5101104;28;20097;-72
2021/06/04 10:06:43;;;;;;;2.45;1.17;;;27.70;48.80;;;;;;5101385;28;20458;-71
2021/06/04 10:09:12;;;;;;;1.83;0.98;;;27.70;48.80;;;;;;5102353;28;20027;-71
2021/06/04 10:11:41;;;;;;;1.52;1.10;;;27.70;48.80;;;;;;5101031;28;20058;-72
2021/06/04 10:14:33;;;;;;;1.35;0.88;;;27.80;48.80;;;;;;5101257;28;20042;-71
2021/06/04 10:20:33;;;;;;;1.45;0.90;;;28.00;48.60;;;;;;5096923;28;20297;-71
2021/06/04 10:23:23;;;;;;;1.52;0.95;;;28.10;48.60;;;;;;5082150;28;20032;-72
2021/06/04 10:25:57;;;;;;;1.65;0.95;;;28.20;48.50;;;;;;5087667;28;20035;-73
2021/06/04 10:28:42;;;;;;;2.45;1.02;;;28.30;48.40;;;;;;5070435;28;20055;-73
2021/06/04 10:31:17;;;;;;;1.85;1.05;;;28.30;48.20;;;;;;5087406;28;20028;-72
2021/06/04 10:34:11;;;;;;;2.25;1.40;;;28.40;48.20;;;;;;5076613;28;20037;-71
2021/06/04 10:36:41;;;;;;;1.88;0.73;;;28.50;48.00;;;;;;5068744;28;20360;-73
2021/06/04 10:39:13;;;;;;;1.42;0.93;;;28.60;48.00;;;;;;5080213;28;20303;-72
2021/06/04 10:41:42;;;;;;;1.38;1.02;;;28.70;47.90;;;;;;5086923;28;20039;-72
2021/06/04 10:44:19;;;;;;;1.65;0.90;;;28.70;47.70;;;;;;5088263;28;20032;-71
2021/06/04 10:47:05;;;;;;;0.90;0.80;;;28.80;47.60;;;;;;5087593;28;20493;-72
2021/06/04 10:50:02;;;;;;;1.23;0.93;;;28.80;47.50;;;;;;5087098;28;20047;-73
2021/06/04 10:53:13;;;;;;;1.48;0.98;;;28.90;47.40;;;;;;5088861;28;20043;-74
2021/06/04 10:55:56;;;;;;;2.40;1.10;;;29.00;47.40;;;;;;5079743;28;20075;-72
2021/06/04 10:58:56;;;;;;;3.40;1.10;;;29.00;47.30;;;;;;5069937;28;20036;-73
2021/06/04 11:01:41;;;;;;;2.47;0.75;;;29.10;47.10;;;;;;5071792;28;20029;-71
2021/06/04 11:04:18;;;;;;;3.15;0.80;;;29.20;47.00;;;;;;5082629;28;20486;-73
2021/06/04 11:06:47;;;;;;;1.33;0.98;;;29.30;46.90;;;;;;5087280;28;20796;-72
2021/06/04 11:09:16;;;;;;;2.15;1.10;;;29.30;46.70;;;;;;5087969;28;20378;-73
2021/06/04 11:12:00;;;;;;;1.52;1.00;;;29.40;46.70;;;;;;5087760;28;20070;-73
2021/06/04 11:14:38;;;;;;;2.42;1.33;;;29.50;46.50;;;;;;5087617;28;20028;-73
2021/06/04 11:17:31;;;;;;;1.50;1.27;;;29.60;46.50;;;;;;5087230;28;20035;-72
2021/06/04 11:20:02;;;;;;;;;;;29.70;46.50;;;;;;5088083;28;20497;-72
2021/06/04 11:22:32;;;;;;;3.33;1.35;;;29.80;46.90;;;;;;5086622;28;19912;-72
2021/06/04 11:25:05;;;;;;;4.10;1.30;;;29.80;44.10;;;;;;5088585;28;20347;-73
2021/06/04 11:27:39;;;;;;;;;;;29.60;42.90;;;;;;5087416;28;20020;-72
2021/06/04 11:30:25;;;;;;;2.00;1.00;;;29.40;44.30;;;;;;5086459;28;19989;-72
2021/06/04 11:32:58;;;;;;;2.60;1.40;;;29.00;42.60;;;;;;5086135;28;20490;-71
2021/06/04 11:35:28;;;;;;;3.10;1.40;;;28.70;41.80;;;;;;5085728;28;20031;-71
2021/06/04 11:38:12;;;;;;;3.17;1.55;;;28.50;41.80;;;;;;5085815;28;20044;-72
2021/06/04 11:40:51;;;;;;;6.00;1.42;;;28.30;41.30;;;;;;5087682;28;20024;-72
2021/06/04 11:43:20;;;;;;;5.80;1.48;;;28.10;40.90;;;;;;5086922;28;20024;-72
2021/06/04 11:45:48;;;;;;;2.80;1.65;;;28.00;40.80;;;;;;5068991;28;20028;-71
2021/06/04 11:48:20;;;;;;;5.80;1.33;;;27.90;40.40;;;;;;5085836;28;20024;-72
2021/06/04 11:51:10;;;;;;;9.40;1.48;;;27.80;40.00;;;;;;5085970;28;20035;-72
2021/06/04 11:53:38;;;;;;;3.97;1.52;;;27.60;40.00;;;;;;5086455;28;20491;-71
2021/06/04 11:56:49;;;;;;;3.75;1.38;;;27.50;40.30;;;;;;5085668;28;20036;-71
2021/06/04 11:59:45;;;;;;;3.92;1.42;;;27.40;40.20;;;;;;5086529;28;20027;-71
2021/06/04 12:02:47;;;;;;;3.00;1.02;;;27.40;40.30;;;;;;5086692;28;20113;-71
2021/06/04 12:05:19;;;;;;;2.35;1.38;;;27.30;39.70;;;;;;5085196;28;20040;-72
2021/06/04 12:08:06;;;;;;;6.97;1.85;;;27.30;39.50;;;;;;5068289;28;20027;-72
2021/06/04 12:10:58;;;;;;;2.40;1.23;;;27.20;39.70;;;;;;5085754;28;20254;-72
2021/06/04 12:13:41;;;;;;;3.05;1.25;;;27.20;39.50;;;;;;5066179;28;20044;-71
2021/06/04 12:16:26;;;;;;;;;;;27.10;39.20;;;;;;5069459;28;20024;-72
2021/06/04 12:18:59;;;;;;;4.13;1.27;;;27.10;40.00;;;;;;5084556;28;19943;-72
2021/06/04 12:21:38;;;;;;;3.42;1.25;;;27.10;39.70;;;;;;5081342;28;20056;-71
2021/06/04 12:24:31;;;;;;;2.50;1.23;;;27.10;39.10;;;;;;5080337;28;20536;-72
2021/06/04 12:26:59;;;;;;;2.13;1.48;;;27.00;39.20;;;;;;5085243;28;20036;-72
2021/06/04 12:29:26;;;;;;;3.35;1.40;;;27.00;39.10;;;;;;5086229;28;20081;-72
2021/06/04 12:32:06;;;;;;;2.80;1.10;;;27.00;39.50;;;;;;5084771;28;20397;-72
2021/06/04 12:34:32;;;;;;;3.10;1.45;;;27.00;39.20;;;;;;5086731;28;20114;-71
2021/06/04 12:37:18;;;;;;;2.88;1.50;;;27.00;38.50;;;;;;5084676;28;20040;-72
2021/06/04 12:40:29;;;;;;;2.35;1.17;;;27.00;38.20;;;;;;5086068;28;20039;-72
2021/06/04 12:43:06;;;;;;;1.60;0.90;;;27.00;38.30;;;;;;5084656;28;20063;-74
2021/06/04 12:45:40;;;;;;;1.13;1.00;;;27.00;38.30;;;;;;5086614;28;20031;-72
2021/06/04 12:48:17;;;;;;;2.03;0.80;;;27.00;38.30;;;;;;5084161;28;20032;-72
2021/06/04 12:51:05;;;;;;;2.65;0.93;;;27.10;38.30;;;;;;5068370;28;20097;-72
2021/06/04 12:53:40;;;;;;;1.23;0.80;;;27.10;38.30;;;;;;5076893;28;20040;-71
2021/06/04 12:56:12;;;;;;;2.97;0.77;;;27.10;38.00;;;;;;5084669;28;20035;-72
2021/06/04 12:58:48;;;;;;;1.48;0.90;;;27.10;37.90;;;;;;5086050;28;20026;-72
2021/06/04 13:01:17;;;;;;;2.75;0.85;;;27.20;37.80;;;;;;5086050;28;20394;-72
2021/06/04 13:03:47;;;;;;;1.23;0.73;;;27.20;37.60;;;;;;5067085;28;20051;-71
2021/06/04 13:06:24;;;;;;;1.33;0.60;;;27.20;37.20;;;;;;5084899;28;20511;-71
2021/06/04 13:08:52;;;;;;;1.85;0.77;;;27.20;36.70;;;;;;5086138;28;20039;-72
2021/06/04 13:11:38;;;;;;;1.00;0.52;;;27.20;36.80;;;;;;5084485;28;20024;-71
2021/06/04 13:14:29;;;;;;;1.58;0.85;;;27.20;36.50;;;;;;5084452;28;20036;-72
2021/06/04 13:17:08;;;;;;;1.90;0.88;;;27.20;36.60;;;;;;5085855;28;20043;-72
2021/06/04 13:19:34;;;;;;;1.02;0.80;;;27.30;36.70;;;;;;5084750;28;20453;-72
2021/06/04 13:22:04;;;;;;;2.47;0.80;;;27.30;36.70;;;;;;5084630;28;20051;-71
2021/06/04 13:24:34;;;;;;;1.15;0.65;;;27.30;36.60;;;;;;5084607;28;20028;-71
2021/06/04 13:27:15;;;;;;;3.03;1.07;;;27.30;37.10;;;;;;5067886;28;20497;-71
2021/06/04 13:29:44;;;;;;;0.90;0.68;;;27.30;36.30;;;;;;5083714;28;20260;-71
2021/06/04 13:32:19;;;;;;;0.63;0.50;;;27.40;36.40;;;;;;5084688;28;20046;-71
2021/06/04 13:34:57;;;;;;;1.63;0.73;;;27.40;35.90;;;;;;5085371;28;20115;-72
2021/06/04 13:37:35;;;;;;;1.50;0.88;;;27.40;36.00;;;;;;5084253;28;20038;-72
2021/06/04 13:40:01;;;;;;;1.38;0.80;;;27.40;36.10;;;;;;5083988;28;20042;-72
2021/06/04 13:42:40;;;;;;;1.77;0.80;;;27.50;36.20;;;;;;5084540;28;20076;-71
2021/06/04 13:45:11;;;;;;;1.25;0.60;;;27.50;36.20;;;;;;5083841;28;20036;-72
2021/06/04 13:48:00;;;;;;;2.00;0.80;;;27.50;36.20;;;;;;5085163;28;20485;-71
2021/06/04 13:50:29;;;;;;;1.60;0.82;;;27.50;36.10;;;;;;5067542;28;20040;-72
2021/06/04 13:53:08;;;;;;;4.53;1.15;;;27.50;36.20;;;;;;5084544;28;20439;-72
2021/06/04 13:55:34;;;;;;;1.63;0.80;;;27.50;36.00;;;;;;5067666;28;20024;-72
2021/06/04 13:58:24;;;;;;;0.90;0.80;;;27.50;36.00;;;;;;5085405;28;20055;-71
2021/06/04 14:01:14;;;;;;;1.27;0.80;;;27.50;35.70;;;;;;5089408;28;20032;-72
2021/06/04 14:03:44;;;;;;;1.23;0.90;;;27.60;35.80;;;;;;5087932;28;20528;-71
2021/06/04 14:06:26;;;;;;;1.55;1.00;;;27.60;35.90;;;;;;5089224;28;20420;-72
2021/06/04 14:09:11;;;;;;;3.65;1.08;;;27.60;36.00;;;;;;5085094;28;20032;-72
2021/06/04 14:11:55;;;;;;;1.98;0.80;;;27.60;36.10;;;;;;5070140;28;20322;-70
2021/06/04 14:14:33;;;;;;;3.00;0.88;;;27.60;35.90;;;;;;5088748;28;20044;-71
2021/06/04 14:17:00;;;;;;;3.47;0.90;;;27.60;36.10;;;;;;5089099;28;20034;-71
2021/06/04 14:19:48;;;;;;;4.32;1.08;;;27.60;36.40;;;;;;5088620;28;20311;-72
2021/06/04 14:22:41;;;;;;;4.22;1.17;;;27.60;36.40;;;;;;5087260;28;20058;-72
2021/06/04 14:25:16;;;;;;;3.78;1.20;;;27.70;36.60;;;;;;5088546;28;20024;-72
2021/06/04 14:27:56;;;;;;;5.88;1.13;;;27.70;36.70;;;;;;5088632;28;20186;-72
2021/06/04 14:30:36;;;;;;;2.72;1.33;;;27.70;36.80;;;;;;5089477;28;20043;-71